sensor_id;sensor_type;location;lat;lon;timestamp;P1;durP1;ratioP1;P2;durP2;ratioP2
20462;SDS011;10390;53.566;9.980;2023-12-07T00:02:07;16.95;;;13.25;;
20462;SDS011;10390;53.566;9.980;2023-12-07T00:04:33;18.88;;;14.07;;
20462;SDS011;10390;53.566;9.980;2023-12-07T00:06:58;17.63;;;12.40;;
20462;SDS011;10390;53.566;9.980;2023-12-07T00:09:24;16.63;;;11.98;;
20462;SDS011;10390;53.566;9.980;2023-12-07T00:11:49;14.60;;;11.98;;
20462;SDS011;10390;53.566;9.980;2023-12-07T00:14:15;14.25;;;12.00;;
20462;SDS011;10390;53.566;9.980;2023-12-07T00:16:41;16.13;;;12.13;;
20462;SDS011;10390;53.566;9.980;2023-12-07T00:19:07;17.38;;;12.80;;
20462;SDS011;10390;53.566;9.980;2023-12-07T00:21:33;15.90;;;13.18;;
20462;SDS011;10390;53.566;9.980;2023-12-07T00:23:58;15.55;;;12.18;;
20462;SDS011;10390;53.566;9.980;2023-12-07T00:26:24;15.93;;;12.68;;
20462;SDS011;10390;53.566;9.980;2023-12-07T00:28:50;15.18;;;12.35;;
20462;SDS011;10390;53.566;9.980;2023-12-07T00:31:16;15.13;;;12.52;;
20462;SDS011;10390;53.566;9.980;2023-12-07T00:33:42;17.75;;;13.23;;
20462;SDS011;10390;53.566;9.980;2023-12-07T00:36:07;18.70;;;13.75;;
20462;SDS011;10390;53.566;9.980;2023-12-07T00:38:33;15.23;;;12.73;;
20462;SDS011;10390;53.566;9.980;2023-12-07T00:40:59;16.42;;;12.90;;
20462;SDS011;10390;53.566;9.980;2023-12-07T00:43:24;17.65;;;13.85;;
20462;SDS011;10390;53.566;9.980;2023-12-07T00:45:50;17.48;;;13.65;;
20462;SDS011;10390;53.566;9.980;2023-12-07T00:48:16;16.17;;;13.27;;
20462;SDS011;10390;53.566;9.980;2023-12-07T00:50:41;18.38;;;14.93;;
20462;SDS011;10390;53.566;9.980;2023-12-07T00:53:07;18.92;;;16.27;;
20462;SDS011;10390;53.566;9.980;2023-12-07T00:55:33;19.42;;;15.05;;
20462;SDS011;10390;53.566;9.980;2023-12-07T00:57:59;19.20;;;14.95;;
20462;SDS011;10390;53.566;9.980;2023-12-07T01:00:26;22.95;;;16.88;;
20462;SDS011;10390;53.566;9.980;2023-12-07T01:02:52;20.73;;;16.50;;
20462;SDS011;10390;53.566;9.980;2023-12-07T01:05:18;19.63;;;15.52;;
20462;SDS011;10390;53.566;9.980;2023-12-07T01:07:43;19.95;;;15.63;;
20462;SDS011;10390;53.566;9.980;2023-12-07T01:10:10;20.17;;;14.73;;
20462;SDS011;10390;53.566;9.980;2023-12-07T01:12:36;17.42;;;13.40;;
20462;SDS011;10390;53.566;9.980;2023-12-07T01:15:01;16.58;;;13.25;;
20462;SDS011;10390;53.566;9.980;2023-12-07T01:17:27;16.80;;;13.68;;
20462;SDS011;10390;53.566;9.980;2023-12-07T01:19:53;17.02;;;13.05;;
20462;SDS011;10390;53.566;9.980;2023-12-07T01:22:19;15.88;;;13.25;;
20462;SDS011;10390;53.566;9.980;2023-12-07T01:24:45;14.95;;;12.82;;
20462;SDS011;10390;53.566;9.980;2023-12-07T01:27:11;14.95;;;13.05;;
20462;SDS011;10390;53.566;9.980;2023-12-07T01:29:36;15.27;;;12.85;;
20462;SDS011;10390;53.566;9.980;2023-12-07T01:32:02;15.10;;;13.00;;
20462;SDS011;10390;53.566;9.980;2023-12-07T01:34:28;14.00;;;12.50;;
20462;SDS011;10390;53.566;9.980;2023-12-07T01:36:53;14.32;;;12.82;;
20462;SDS011;10390;53.566;9.980;2023-12-07T01:39:19;15.52;;;13.10;;
20462;SDS011;10390;53.566;9.980;2023-12-07T01:41:46;15.48;;;13.65;;
20462;SDS011;10390;53.566;9.980;2023-12-07T01:44:11;14.48;;;12.15;;
20462;SDS011;10390;53.566;9.980;2023-12-07T01:46:37;17.60;;;13.35;;
20462;SDS011;10390;53.566;9.980;2023-12-07T01:49:02;14.25;;;12.50;;
20462;SDS011;10390;53.566;9.980;2023-12-07T01:51:28;16.60;;;13.02;;
20462;SDS011;10390;53.566;9.980;2023-12-07T01:53:54;14.75;;;12.95;;
20462;SDS011;10390;53.566;9.980;2023-12-07T01:56:20;17.98;;;15.05;;
20462;SDS011;10390;53.566;9.980;2023-12-07T01:58:49;16.73;;;14.27;;
20462;SDS011;10390;53.566;9.980;2023-12-07T02:01:15;17.88;;;14.52;;
20462;SDS011;10390;53.566;9.980;2023-12-07T02:03:40;18.40;;;15.93;;
20462;SDS011;10390;53.566;9.980;2023-12-07T02:06:06;18.55;;;15.48;;
20462;SDS011;10390;53.566;9.980;2023-12-07T02:08:33;18.40;;;15.38;;
20462;SDS011;10390;53.566;9.980;2023-12-07T02:11:00;20.33;;;16.20;;
20462;SDS011;10390;53.566;9.980;2023-12-07T02:13:25;17.33;;;15.45;;
20462;SDS011;10390;53.566;9.980;2023-12-07T02:15:52;18.33;;;14.73;;
20462;SDS011;10390;53.566;9.980;2023-12-07T02:21:08;16.42;;;13.77;;
20462;SDS011;10390;53.566;9.980;2023-12-07T02:23:41;15.77;;;12.70;;
20462;SDS011;10390;53.566;9.980;2023-12-07T02:26:08;15.02;;;13.38;;
20462;SDS011;10390;53.566;9.980;2023-12-07T02:28:35;17.42;;;14.02;;
20462;SDS011;10390;53.566;9.980;2023-12-07T02:31:00;14.63;;;12.63;;
20462;SDS011;10390;53.566;9.980;2023-12-07T02:33:26;13.82;;;12.32;;
20462;SDS011;10390;53.566;9.980;2023-12-07T02:35:51;15.98;;;13.32;;
20462;SDS011;10390;53.566;9.980;2023-12-07T02:38:17;14.52;;;12.07;;
20462;SDS011;10390;53.566;9.980;2023-12-07T02:40:45;14.30;;;12.15;;
20462;SDS011;10390;53.566;9.980;2023-12-07T02:43:13;14.10;;;12.30;;
20462;SDS011;10390;53.566;9.980;2023-12-07T02:45:39;14.57;;;12.55;;
20462;SDS011;10390;53.566;9.980;2023-12-07T02:48:05;13.27;;;11.60;;
20462;SDS011;10390;53.566;9.980;2023-12-07T02:50:30;14.52;;;12.48;;
20462;SDS011;10390;53.566;9.980;2023-12-07T02:52:56;15.10;;;12.05;;
20462;SDS011;10390;53.566;9.980;2023-12-07T02:55:22;15.60;;;12.90;;
20462;SDS011;10390;53.566;9.980;2023-12-07T02:57:47;16.95;;;13.63;;
20462;SDS011;10390;53.566;9.980;2023-12-07T03:00:13;16.50;;;13.65;;
20462;SDS011;10390;53.566;9.980;2023-12-07T03:02:39;16.05;;;14.35;;
20462;SDS011;10390;53.566;9.980;2023-12-07T03:05:05;18.30;;;14.75;;
20462;SDS011;10390;53.566;9.980;2023-12-07T03:07:32;19.38;;;15.80;;
20462;SDS011;10390;53.566;9.980;2023-12-07T03:09:59;18.65;;;15.68;;
20462;SDS011;10390;53.566;9.980;2023-12-07T03:12:24;18.33;;;15.73;;
20462;SDS011;10390;53.566;9.980;2023-12-07T03:14:50;16.95;;;14.73;;
20462;SDS011;10390;53.566;9.980;2023-12-07T03:17:16;16.65;;;14.75;;
20462;SDS011;10390;53.566;9.980;2023-12-07T03:19:41;17.35;;;14.02;;
20462;SDS011;10390;53.566;9.980;2023-12-07T03:22:07;16.00;;;12.95;;
20462;SDS011;10390;53.566;9.980;2023-12-07T03:24:37;16.10;;;14.13;;
20462;SDS011;10390;53.566;9.980;2023-12-07T03:27:03;15.38;;;13.15;;
20462;SDS011;10390;53.566;9.980;2023-12-07T03:29:30;14.15;;;12.57;;
20462;SDS011;10390;53.566;9.980;2023-12-07T03:31:56;14.63;;;11.90;;
20462;SDS011;10390;53.566;9.980;2023-12-07T03:34:22;14.23;;;11.77;;
20462;SDS011;10390;53.566;9.980;2023-12-07T03:36:48;13.77;;;11.70;;
20462;SDS011;10390;53.566;9.980;2023-12-07T03:39:14;14.57;;;12.25;;
20462;SDS011;10390;53.566;9.980;2023-12-07T03:41:41;13.20;;;11.48;;
20462;SDS011;10390;53.566;9.980;2023-12-07T03:44:07;14.00;;;11.98;;
20462;SDS011;10390;53.566;9.980;2023-12-07T03:46:32;13.70;;;12.13;;
20462;SDS011;10390;53.566;9.980;2023-12-07T03:48:58;14.05;;;11.88;;
20462;SDS011;10390;53.566;9.980;2023-12-07T03:51:25;12.43;;;10.88;;
20462;SDS011;10390;53.566;9.980;2023-12-07T03:53:51;14.18;;;11.68;;
20462;SDS011;10390;53.566;9.980;2023-12-07T03:56:23;13.98;;;11.43;;
20462;SDS011;10390;53.566;9.980;2023-12-07T03:58:52;15.10;;;12.60;;
20462;SDS011;10390;53.566;9.980;2023-12-07T04:01:21;13.40;;;11.60;;
20462;SDS011;10390;53.566;9.980;2023-12-07T04:03:48;15.50;;;12.70;;
20462;SDS011;10390;53.566;9.980;2023-12-07T04:06:14;15.02;;;12.23;;
20462;SDS011;10390;53.566;9.980;2023-12-07T04:08:39;17.20;;;13.23;;
20462;SDS011;10390;53.566;9.980;2023-12-07T04:11:05;16.90;;;13.98;;
20462;SDS011;10390;53.566;9.980;2023-12-07T04:13:31;16.67;;;13.80;;
20462;SDS011;10390;53.566;9.980;2023-12-07T04:15:56;15.73;;;12.95;;
20462;SDS011;10390;53.566;9.980;2023-12-07T04:18:22;16.67;;;13.30;;
20462;SDS011;10390;53.566;9.980;2023-12-07T04:20:47;15.63;;;12.82;;
20462;SDS011;10390;53.566;9.980;2023-12-07T04:23:13;14.90;;;12.52;;
20462;SDS011;10390;53.566;9.980;2023-12-07T04:25:38;13.80;;;11.70;;
20462;SDS011;10390;53.566;9.980;2023-12-07T04:28:04;12.55;;;11.20;;
20462;SDS011;10390;53.566;9.980;2023-12-07T04:30:29;12.98;;;11.02;;
20462;SDS011;10390;53.566;9.980;2023-12-07T04:32:55;12.18;;;10.82;;
20462;SDS011;10390;53.566;9.980;2023-12-07T04:35:21;12.57;;;10.63;;
20462;SDS011;10390;53.566;9.980;2023-12-07T04:37:46;13.23;;;10.30;;
20462;SDS011;10390;53.566;9.980;2023-12-07T04:40:12;11.98;;;10.45;;
20462;SDS011;10390;53.566;9.980;2023-12-07T04:42:38;11.90;;;10.60;;
20462;SDS011;10390;53.566;9.980;2023-12-07T04:45:03;12.35;;;10.70;;
20462;SDS011;10390;53.566;9.980;2023-12-07T04:47:29;11.63;;;10.02;;
20462;SDS011;10390;53.566;9.980;2023-12-07T04:49:55;12.10;;;10.38;;
20462;SDS011;10390;53.566;9.980;2023-12-07T04:52:20;13.18;;;10.82;;
20462;SDS011;10390;53.566;9.980;2023-12-07T04:54:46;12.38;;;10.43;;
20462;SDS011;10390;53.566;9.980;2023-12-07T04:57:11;11.93;;;10.25;;
20462;SDS011;10390;53.566;9.980;2023-12-07T04:59:37;12.45;;;10.50;;
20462;SDS011;10390;53.566;9.980;2023-12-07T05:02:03;12.55;;;10.90;;
20462;SDS011;10390;53.566;9.980;2023-12-07T05:04:28;12.55;;;11.02;;
20462;SDS011;10390;53.566;9.980;2023-12-07T05:06:54;14.25;;;11.90;;
20462;SDS011;10390;53.566;9.980;2023-12-07T05:09:19;13.57;;;12.18;;
20462;SDS011;10390;53.566;9.980;2023-12-07T05:11:46;15.07;;;13.48;;
20462;SDS011;10390;53.566;9.980;2023-12-07T05:14:12;15.48;;;13.52;;
20462;SDS011;10390;53.566;9.980;2023-12-07T05:16:37;16.13;;;14.00;;
20462;SDS011;10390;53.566;9.980;2023-12-07T05:19:03;15.73;;;13.88;;
20462;SDS011;10390;53.566;9.980;2023-12-07T05:21:29;15.27;;;13.25;;
20462;SDS011;10390;53.566;9.980;2023-12-07T05:23:54;14.40;;;12.77;;
20462;SDS011;10390;53.566;9.980;2023-12-07T05:26:20;15.25;;;12.40;;
20462;SDS011;10390;53.566;9.980;2023-12-07T05:28:46;14.05;;;12.48;;
20462;SDS011;10390;53.566;9.980;2023-12-07T05:31:18;12.65;;;11.07;;
20462;SDS011;10390;53.566;9.980;2023-12-07T05:33:44;13.57;;;12.05;;
20462;SDS011;10390;53.566;9.980;2023-12-07T05:36:09;12.07;;;10.77;;
20462;SDS011;10390;53.566;9.980;2023-12-07T05:38:35;12.15;;;10.70;;
20462;SDS011;10390;53.566;9.980;2023-12-07T05:41:00;12.18;;;10.85;;
20462;SDS011;10390;53.566;9.980;2023-12-07T05:43:26;11.55;;;10.35;;
20462;SDS011;10390;53.566;9.980;2023-12-07T05:45:52;12.85;;;11.15;;
20462;SDS011;10390;53.566;9.980;2023-12-07T05:48:18;12.23;;;10.80;;
20462;SDS011;10390;53.566;9.980;2023-12-07T05:50:43;11.93;;;10.25;;
20462;SDS011;10390;53.566;9.980;2023-12-07T05:53:09;11.77;;;10.23;;
20462;SDS011;10390;53.566;9.980;2023-12-07T05:55:35;12.68;;;9.95;;
20462;SDS011;10390;53.566;9.980;2023-12-07T05:58:01;12.35;;;10.35;;
20462;SDS011;10390;53.566;9.980;2023-12-07T06:00:28;12.27;;;10.95;;
20462;SDS011;10390;53.566;9.980;2023-12-07T06:02:54;12.10;;;10.55;;
20462;SDS011;10390;53.566;9.980;2023-12-07T06:05:19;12.82;;;11.38;;
20462;SDS011;10390;53.566;9.980;2023-12-07T06:07:46;13.07;;;11.65;;
20462;SDS011;10390;53.566;9.980;2023-12-07T06:10:11;13.40;;;11.98;;
20462;SDS011;10390;53.566;9.980;2023-12-07T06:12:37;13.90;;;12.50;;
20462;SDS011;10390;53.566;9.980;2023-12-07T06:15:02;16.42;;;12.55;;
20462;SDS011;10390;53.566;9.980;2023-12-07T06:17:32;17.20;;;13.85;;
20462;SDS011;10390;53.566;9.980;2023-12-07T06:19:58;15.57;;;13.95;;
20462;SDS011;10390;53.566;9.980;2023-12-07T06:22:25;14.40;;;12.75;;
20462;SDS011;10390;53.566;9.980;2023-12-07T06:24:51;15.98;;;12.60;;
20462;SDS011;10390;53.566;9.980;2023-12-07T06:27:16;14.27;;;12.77;;
20462;SDS011;10390;53.566;9.980;2023-12-07T06:29:43;14.52;;;12.85;;
20462;SDS011;10390;53.566;9.980;2023-12-07T06:32:08;17.33;;;12.23;;
20462;SDS011;10390;53.566;9.980;2023-12-07T06:34:39;15.48;;;12.18;;
20462;SDS011;10390;53.566;9.980;2023-12-07T06:37:05;18.45;;;13.63;;
20462;SDS011;10390;53.566;9.980;2023-12-07T06:39:31;14.48;;;12.65;;
20462;SDS011;10390;53.566;9.980;2023-12-07T06:41:56;16.67;;;12.60;;
20462;SDS011;10390;53.566;9.980;2023-12-07T06:44:22;12.65;;;11.35;;
20462;SDS011;10390;53.566;9.980;2023-12-07T06:46:48;17.23;;;12.93;;
20462;SDS011;10390;53.566;9.980;2023-12-07T06:49:14;19.50;;;14.48;;
20462;SDS011;10390;53.566;9.980;2023-12-07T06:51:40;16.10;;;14.40;;
20462;SDS011;10390;53.566;9.980;2023-12-07T06:54:05;21.70;;;13.73;;
20462;SDS011;10390;53.566;9.980;2023-12-07T06:56:31;16.77;;;13.00;;
20462;SDS011;10390;53.566;9.980;2023-12-07T06:58:56;16.00;;;13.48;;
20462;SDS011;10390;53.566;9.980;2023-12-07T07:01:22;13.98;;;12.45;;
20462;SDS011;10390;53.566;9.980;2023-12-07T07:03:47;16.60;;;13.25;;
20462;SDS011;10390;53.566;9.980;2023-12-07T07:06:13;20.15;;;14.05;;
20462;SDS011;10390;53.566;9.980;2023-12-07T07:08:39;15.93;;;12.90;;
20462;SDS011;10390;53.566;9.980;2023-12-07T07:11:09;14.75;;;13.10;;
20462;SDS011;10390;53.566;9.980;2023-12-07T07:13:37;18.17;;;13.90;;
20462;SDS011;10390;53.566;9.980;2023-12-07T07:16:03;16.88;;;14.25;;
20462;SDS011;10390;53.566;9.980;2023-12-07T07:18:28;16.08;;;14.40;;
20462;SDS011;10390;53.566;9.980;2023-12-07T07:20:54;15.13;;;12.57;;
20462;SDS011;10390;53.566;9.980;2023-12-07T07:23:20;17.23;;;13.52;;
20462;SDS011;10390;53.566;9.980;2023-12-07T07:25:45;16.27;;;13.07;;
20462;SDS011;10390;53.566;9.980;2023-12-07T07:28:11;14.63;;;12.98;;
20462;SDS011;10390;53.566;9.980;2023-12-07T07:30:36;16.00;;;12.45;;
20462;SDS011;10390;53.566;9.980;2023-12-07T07:33:03;16.77;;;12.20;;
20462;SDS011;10390;53.566;9.980;2023-12-07T07:35:29;14.93;;;13.27;;
20462;SDS011;10390;53.566;9.980;2023-12-07T07:37:55;14.65;;;12.35;;
20462;SDS011;10390;53.566;9.980;2023-12-07T07:40:20;14.68;;;12.05;;
20462;SDS011;10390;53.566;9.980;2023-12-07T07:42:46;18.17;;;12.07;;
20462;SDS011;10390;53.566;9.980;2023-12-07T07:45:11;16.00;;;13.18;;
20462;SDS011;10390;53.566;9.980;2023-12-07T07:47:37;15.10;;;13.10;;
20462;SDS011;10390;53.566;9.980;2023-12-07T07:50:04;16.00;;;13.02;;
20462;SDS011;10390;53.566;9.980;2023-12-07T07:52:34;14.57;;;13.05;;
20462;SDS011;10390;53.566;9.980;2023-12-07T07:55:01;15.90;;;12.60;;
20462;SDS011;10390;53.566;9.980;2023-12-07T07:57:28;14.82;;;13.23;;
20462;SDS011;10390;53.566;9.980;2023-12-07T07:59:55;13.48;;;11.85;;
20462;SDS011;10390;53.566;9.980;2023-12-07T08:02:21;14.88;;;12.05;;
20462;SDS011;10390;53.566;9.980;2023-12-07T08:04:47;13.20;;;11.77;;
20462;SDS011;10390;53.566;9.980;2023-12-07T08:07:13;17.20;;;12.30;;
20462;SDS011;10390;53.566;9.980;2023-12-07T08:09:38;13.55;;;12.13;;
20462;SDS011;10390;53.566;9.980;2023-12-07T08:12:05;14.35;;;11.93;;
20462;SDS011;10390;53.566;9.980;2023-12-07T08:14:31;12.77;;;11.48;;
20462;SDS011;10390;53.566;9.980;2023-12-07T08:16:57;12.38;;;10.95;;
20462;SDS011;10390;53.566;9.980;2023-12-07T08:19:23;12.82;;;11.48;;
20462;SDS011;10390;53.566;9.980;2023-12-07T08:21:50;13.18;;;11.18;;
20462;SDS011;10390;53.566;9.980;2023-12-07T08:24:16;13.73;;;10.77;;
20462;SDS011;10390;53.566;9.980;2023-12-07T08:26:41;13.05;;;11.55;;
20462;SDS011;10390;53.566;9.980;2023-12-07T08:29:07;12.75;;;11.45;;
20462;SDS011;10390;53.566;9.980;2023-12-07T08:31:33;14.10;;;11.95;;
20462;SDS011;10390;53.566;9.980;2023-12-07T08:33:58;13.23;;;11.82;;
20462;SDS011;10390;53.566;9.980;2023-12-07T08:36:25;15.02;;;11.52;;
20462;SDS011;10390;53.566;9.980;2023-12-07T08:38:51;14.27;;;11.68;;
20462;SDS011;10390;53.566;9.980;2023-12-07T08:41:17;13.63;;;10.85;;
20462;SDS011;10390;53.566;9.980;2023-12-07T08:43:43;13.85;;;11.52;;
20462;SDS011;10390;53.566;9.980;2023-12-07T08:46:09;12.95;;;10.50;;
20462;SDS011;10390;53.566;9.980;2023-12-07T08:48:35;12.85;;;10.70;;
20462;SDS011;10390;53.566;9.980;2023-12-07T08:51:02;12.60;;;10.93;;
20462;SDS011;10390;53.566;9.980;2023-12-07T08:53:28;12.02;;;10.70;;
20462;SDS011;10390;53.566;9.980;2023-12-07T08:55:54;13.07;;;11.68;;
20462;SDS011;10390;53.566;9.980;2023-12-07T08:58:20;11.98;;;10.30;;
20462;SDS011;10390;53.566;9.980;2023-12-07T09:00:46;13.35;;;10.60;;
20462;SDS011;10390;53.566;9.980;2023-12-07T09:03:11;12.25;;;10.00;;
20462;SDS011;10390;53.566;9.980;2023-12-07T09:05:37;11.80;;;10.02;;
20462;SDS011;10390;53.566;9.980;2023-12-07T09:08:03;11.77;;;10.57;;
20462;SDS011;10390;53.566;9.980;2023-12-07T09:10:28;12.00;;;10.15;;
20462;SDS011;10390;53.566;9.980;2023-12-07T09:12:54;13.10;;;10.73;;
20462;SDS011;10390;53.566;9.980;2023-12-07T09:15:20;12.50;;;10.20;;
20462;SDS011;10390;53.566;9.980;2023-12-07T09:17:46;15.00;;;10.90;;
20462;SDS011;10390;53.566;9.980;2023-12-07T09:20:13;11.95;;;10.65;;
20462;SDS011;10390;53.566;9.980;2023-12-07T09:22:43;12.57;;;10.52;;
20462;SDS011;10390;53.566;9.980;2023-12-07T09:25:09;11.82;;;10.52;;
20462;SDS011;10390;53.566;9.980;2023-12-07T09:27:35;11.80;;;10.40;;
20462;SDS011;10390;53.566;9.980;2023-12-07T09:32:31;11.88;;;10.68;;
20462;SDS011;10390;53.566;9.980;2023-12-07T09:34:57;12.18;;;10.75;;
20462;SDS011;10390;53.566;9.980;2023-12-07T09:37:22;12.00;;;10.43;;
20462;SDS011;10390;53.566;9.980;2023-12-07T09:39:48;11.80;;;10.60;;
20462;SDS011;10390;53.566;9.980;2023-12-07T09:42:14;11.50;;;10.30;;
20462;SDS011;10390;53.566;9.980;2023-12-07T09:44:39;12.02;;;10.70;;
20462;SDS011;10390;53.566;9.980;2023-12-07T09:47:05;11.98;;;10.77;;
20462;SDS011;10390;53.566;9.980;2023-12-07T09:49:31;12.60;;;11.30;;
20462;SDS011;10390;53.566;9.980;2023-12-07T09:51:58;12.43;;;11.05;;
20462;SDS011;10390;53.566;9.980;2023-12-07T09:54:24;12.32;;;11.02;;
20462;SDS011;10390;53.566;9.980;2023-12-07T09:56:51;13.02;;;11.65;;
20462;SDS011;10390;53.566;9.980;2023-12-07T09:59:19;13.50;;;11.73;;
20462;SDS011;10390;53.566;9.980;2023-12-07T10:01:45;11.88;;;10.68;;
20462;SDS011;10390;53.566;9.980;2023-12-07T10:04:17;11.50;;;10.30;;
20462;SDS011;10390;53.566;9.980;2023-12-07T10:06:51;11.40;;;10.30;;
20462;SDS011;10390;53.566;9.980;2023-12-07T10:09:18;12.43;;;11.13;;
20462;SDS011;10390;53.566;9.980;2023-12-07T10:11:46;12.63;;;11.32;;
20462;SDS011;10390;53.566;9.980;2023-12-07T10:14:12;11.70;;;10.50;;
20462;SDS011;10390;53.566;9.980;2023-12-07T10:16:37;12.27;;;10.98;;
20462;SDS011;10390;53.566;9.980;2023-12-07T10:19:16;12.05;;;10.85;;
20462;SDS011;10390;53.566;9.980;2023-12-07T10:21:53;12.25;;;11.05;;
20462;SDS011;10390;53.566;9.980;2023-12-07T10:24:22;12.32;;;10.77;;
20462;SDS011;10390;53.566;9.980;2023-12-07T10:26:50;11.70;;;10.60;;
20462;SDS011;10390;53.566;9.980;2023-12-07T10:29:19;11.90;;;10.70;;
20462;SDS011;10390;53.566;9.980;2023-12-07T10:31:45;12.45;;;11.25;;
20462;SDS011;10390;53.566;9.980;2023-12-07T10:34:17;11.43;;;10.32;;
20462;SDS011;10390;53.566;9.980;2023-12-07T10:36:45;12.48;;;11.18;;
20462;SDS011;10390;53.566;9.980;2023-12-07T10:39:12;12.73;;;11.43;;
20462;SDS011;10390;53.566;9.980;2023-12-07T10:41:38;12.43;;;11.10;;
20462;SDS011;10390;53.566;9.980;2023-12-07T10:44:09;13.07;;;11.88;;
20462;SDS011;10390;53.566;9.980;2023-12-07T10:46:38;11.25;;;10.05;;
20462;SDS011;10390;53.566;9.980;2023-12-07T10:49:07;12.15;;;10.95;;
20462;SDS011;10390;53.566;9.980;2023-12-07T10:51:41;11.68;;;10.48;;
20462;SDS011;10390;53.566;9.980;2023-12-07T10:54:13;11.68;;;10.57;;
20462;SDS011;10390;53.566;9.980;2023-12-07T10:56:45;11.15;;;10.05;;
20462;SDS011;10390;53.566;9.980;2023-12-07T10:59:11;11.73;;;10.52;;
20462;SDS011;10390;53.566;9.980;2023-12-07T11:01:38;11.23;;;10.02;;
20462;SDS011;10390;53.566;9.980;2023-12-07T11:04:05;10.85;;;9.75;;
20462;SDS011;10390;53.566;9.980;2023-12-07T11:06:31;11.52;;;10.25;;
20462;SDS011;10390;53.566;9.980;2023-12-07T11:08:58;10.88;;;9.57;;
20462;SDS011;10390;53.566;9.980;2023-12-07T11:13:53;12.07;;;10.82;;
20462;SDS011;10390;53.566;9.980;2023-12-07T11:16:37;12.02;;;10.82;;
20462;SDS011;10390;53.566;9.980;2023-12-07T11:22:01;10.57;;;9.48;;
20462;SDS011;10390;53.566;9.980;2023-12-07T11:24:27;10.85;;;9.82;;
20462;SDS011;10390;53.566;9.980;2023-12-07T11:26:54;11.75;;;10.55;;
20462;SDS011;10390;53.566;9.980;2023-12-07T11:29:20;11.23;;;10.13;;
20462;SDS011;10390;53.566;9.980;2023-12-07T11:31:48;10.43;;;9.43;;
20462;SDS011;10390;53.566;9.980;2023-12-07T11:34:13;11.35;;;10.25;;
20462;SDS011;10390;53.566;9.980;2023-12-07T11:37:06;10.85;;;9.75;;
20462;SDS011;10390;53.566;9.980;2023-12-07T11:39:35;11.52;;;10.32;;
20462;SDS011;10390;53.566;9.980;2023-12-07T11:42:06;11.32;;;10.23;;
20462;SDS011;10390;53.566;9.980;2023-12-07T11:44:36;10.48;;;9.38;;
20462;SDS011;10390;53.566;9.980;2023-12-07T11:47:03;10.93;;;9.82;;
20462;SDS011;10390;53.566;9.980;2023-12-07T11:49:30;11.43;;;10.23;;
20462;SDS011;10390;53.566;9.980;2023-12-07T11:52:00;11.07;;;9.98;;
20462;SDS011;10390;53.566;9.980;2023-12-07T11:54:26;10.80;;;9.70;;
20462;SDS011;10390;53.566;9.980;2023-12-07T11:56:55;11.50;;;10.40;;
20462;SDS011;10390;53.566;9.980;2023-12-07T11:59:21;11.05;;;9.95;;
20462;SDS011;10390;53.566;9.980;2023-12-07T12:01:48;11.07;;;9.85;;
20462;SDS011;10390;53.566;9.980;2023-12-07T12:04:17;11.32;;;10.20;;
20462;SDS011;10390;53.566;9.980;2023-12-07T12:06:43;11.57;;;10.40;;
20462;SDS011;10390;53.566;9.980;2023-12-07T12:09:12;11.32;;;10.25;;
20462;SDS011;10390;53.566;9.980;2023-12-07T12:11:45;11.25;;;9.90;;
20462;SDS011;10390;53.566;9.980;2023-12-07T12:14:18;11.27;;;10.18;;
20462;SDS011;10390;53.566;9.980;2023-12-07T12:16:45;11.18;;;10.07;;
20462;SDS011;10390;53.566;9.980;2023-12-07T12:19:11;11.85;;;10.68;;
20462;SDS011;10390;53.566;9.980;2023-12-07T12:21:39;11.57;;;10.40;;
20462;SDS011;10390;53.566;9.980;2023-12-07T12:24:05;12.32;;;11.13;;
20462;SDS011;10390;53.566;9.980;2023-12-07T12:26:35;12.30;;;11.07;;
20462;SDS011;10390;53.566;9.980;2023-12-07T12:29:03;12.23;;;11.02;;
20462;SDS011;10390;53.566;9.980;2023-12-07T12:31:29;11.50;;;10.30;;
20462;SDS011;10390;53.566;9.980;2023-12-07T12:33:55;11.88;;;10.68;;
20462;SDS011;10390;53.566;9.980;2023-12-07T12:36:21;13.13;;;11.82;;
20462;SDS011;10390;53.566;9.980;2023-12-07T12:38:51;12.98;;;11.57;;
20462;SDS011;10390;53.566;9.980;2023-12-07T12:41:20;12.23;;;11.02;;
20462;SDS011;10390;53.566;9.980;2023-12-07T12:43:46;12.15;;;10.88;;
20462;SDS011;10390;53.566;9.980;2023-12-07T12:46:12;12.63;;;11.32;;
20462;SDS011;10390;53.566;9.980;2023-12-07T12:48:51;18.42;;;15.35;;
20462;SDS011;10390;53.566;9.980;2023-12-07T12:51:18;16.10;;;14.32;;
20462;SDS011;10390;53.566;9.980;2023-12-07T12:53:44;14.82;;;13.32;;
20462;SDS011;10390;53.566;9.980;2023-12-07T12:56:14;13.32;;;12.00;;
20462;SDS011;10390;53.566;9.980;2023-12-07T12:58:40;13.57;;;12.23;;
20462;SDS011;10390;53.566;9.980;2023-12-07T13:01:06;13.68;;;12.27;;
20462;SDS011;10390;53.566;9.980;2023-12-07T13:03:32;13.57;;;12.18;;
20462;SDS011;10390;53.566;9.980;2023-12-07T13:05:58;14.02;;;12.20;;
20462;SDS011;10390;53.566;9.980;2023-12-07T13:08:24;13.38;;;11.98;;
20462;SDS011;10390;53.566;9.980;2023-12-07T13:10:50;13.85;;;12.30;;
20462;SDS011;10390;53.566;9.980;2023-12-07T13:13:15;15.32;;;12.23;;
20462;SDS011;10390;53.566;9.980;2023-12-07T13:15:41;14.02;;;12.45;;
20462;SDS011;10390;53.566;9.980;2023-12-07T13:18:07;15.52;;;13.05;;
20462;SDS011;10390;53.566;9.980;2023-12-07T13:20:36;14.35;;;11.88;;
20462;SDS011;10390;53.566;9.980;2023-12-07T13:23:01;14.57;;;12.02;;
20462;SDS011;10390;53.566;9.980;2023-12-07T13:25:28;12.95;;;11.63;;
20462;SDS011;10390;53.566;9.980;2023-12-07T13:27:53;13.40;;;11.85;;
20462;SDS011;10390;53.566;9.980;2023-12-07T13:30:19;14.18;;;12.43;;
20462;SDS011;10390;53.566;9.980;2023-12-07T13:32:45;13.07;;;11.40;;
20462;SDS011;10390;53.566;9.980;2023-12-07T13:35:10;13.32;;;11.93;;
20462;SDS011;10390;53.566;9.980;2023-12-07T13:37:37;14.38;;;11.85;;
20462;SDS011;10390;53.566;9.980;2023-12-07T13:40:03;14.57;;;11.00;;
20462;SDS011;10390;53.566;9.980;2023-12-07T13:42:31;12.27;;;10.98;;
20462;SDS011;10390;53.566;9.980;2023-12-07T13:44:57;12.60;;;10.30;;
20462;SDS011;10390;53.566;9.980;2023-12-07T13:47:25;12.43;;;11.18;;
20462;SDS011;10390;53.566;9.980;2023-12-07T13:49:55;11.77;;;10.57;;
20462;SDS011;10390;53.566;9.980;2023-12-07T13:52:21;11.57;;;10.38;;
20462;SDS011;10390;53.566;9.980;2023-12-07T13:54:47;11.77;;;10.00;;
20462;SDS011;10390;53.566;9.980;2023-12-07T13:57:14;12.77;;;11.10;;
20462;SDS011;10390;53.566;9.980;2023-12-07T13:59:39;11.75;;;10.52;;
20462;SDS011;10390;53.566;9.980;2023-12-07T14:02:05;11.45;;;10.27;;
20462;SDS011;10390;53.566;9.980;2023-12-07T14:04:32;13.20;;;10.70;;
20462;SDS011;10390;53.566;9.980;2023-12-07T14:07:08;11.63;;;10.43;;
20462;SDS011;10390;53.566;9.980;2023-12-07T14:09:34;11.45;;;10.07;;
20462;SDS011;10390;53.566;9.980;2023-12-07T14:12:00;12.45;;;11.05;;
20462;SDS011;10390;53.566;9.980;2023-12-07T14:14:26;11.80;;;10.60;;
20462;SDS011;10390;53.566;9.980;2023-12-07T14:16:52;11.95;;;10.75;;
20462;SDS011;10390;53.566;9.980;2023-12-07T14:19:18;12.32;;;11.05;;
20462;SDS011;10390;53.566;9.980;2023-12-07T14:21:44;10.90;;;9.80;;
20462;SDS011;10390;53.566;9.980;2023-12-07T14:24:09;10.85;;;9.70;;
20462;SDS011;10390;53.566;9.980;2023-12-07T14:26:35;11.00;;;9.80;;
20462;SDS011;10390;53.566;9.980;2023-12-07T14:29:00;12.55;;;11.25;;